createdAt,value
2023-03-26T00:02:24.900Z,5.18
2023-03-26T00:04:58.310Z,5.10
2023-03-26T00:07:30.222Z,5.82
2023-03-26T00:10:02.247Z,5.22
2023-03-26T00:12:34.189Z,5.10
2023-03-26T00:15:07.928Z,4.68
2023-03-26T00:17:39.901Z,4.97
2023-03-26T00:20:14.120Z,5.57
2023-03-26T00:22:46.352Z,4.68
2023-03-26T00:25:18.535Z,5.30
2023-03-26T00:27:50.607Z,5.32
2023-03-26T00:30:22.607Z,4.57
2023-03-26T00:32:54.616Z,4.55
2023-03-26T00:35:29.403Z,6.07
2023-03-26T00:38:01.553Z,5.35
2023-03-26T00:40:36.781Z,5.50
2023-03-26T00:43:18.754Z,4.93
2023-03-26T00:45:53.533Z,4.93
2023-03-26T00:48:45.098Z,5.50
2023-03-26T00:51:21.066Z,5.20
2023-03-26T00:53:53.133Z,4.60
2023-03-26T00:56:25.801Z,4.68
2023-03-26T00:58:57.976Z,4.28
2023-03-26T01:01:30.488Z,5.28
2023-03-26T01:04:30.748Z,5.30
2023-03-26T01:07:10.769Z,4.83
2023-03-26T01:09:50.357Z,4.57
2023-03-26T01:12:24.337Z,4.38
2023-03-26T01:15:00.797Z,4.88
2023-03-26T01:17:38.021Z,4.38
2023-03-26T01:20:15.072Z,5.32
2023-03-26T01:22:52.366Z,4.38
2023-03-26T01:25:32.608Z,4.38
2023-03-26T01:28:09.388Z,5.10
2023-03-26T01:30:49.664Z,4.90
2023-03-26T01:33:30.270Z,5.40
2023-03-26T01:36:08.842Z,5.28
2023-03-26T01:38:48.297Z,4.25
2023-03-26T01:41:29.353Z,4.22
2023-03-26T01:44:06.688Z,4.90
2023-03-26T01:46:39.791Z,5.00
2023-03-26T01:49:13.367Z,5.32
2023-03-26T01:51:45.926Z,4.95
2023-03-26T01:54:23.483Z,5.13
2023-03-26T01:57:07.147Z,4.47
2023-03-26T02:00:11.776Z,5.88
2023-03-26T02:03:04.978Z,5.03
2023-03-26T02:08:21.119Z,5.50
2023-03-26T02:10:58.328Z,5.05
2023-03-26T02:13:32.374Z,5.57
2023-03-26T02:16:06.864Z,6.22
2023-03-26T02:18:41.596Z,5.68
2023-03-26T02:21:20.551Z,5.07
2023-03-26T02:24:03.773Z,5.55
2023-03-26T02:26:39.062Z,5.50
2023-03-26T02:29:20.548Z,6.22
2023-03-26T02:31:53.707Z,6.10
2023-03-26T02:34:25.681Z,6.50
2023-03-26T02:36:59.993Z,6.43
2023-03-26T02:39:32.678Z,5.47
2023-03-26T02:42:09.769Z,6.90
2023-03-26T02:44:50.854Z,6.53
2023-03-26T02:47:25.683Z,6.88
2023-03-26T02:49:57.616Z,6.78
2023-03-26T02:52:49.173Z,6.47
2023-03-26T02:55:21.686Z,6.63
2023-03-26T02:57:57.193Z,6.72
2023-03-26T03:00:36.651Z,6.72
2023-03-26T03:03:28.057Z,5.60
2023-03-26T03:06:32.517Z,6.68
2023-03-26T03:09:05.255Z,6.07
2023-03-26T03:11:41.315Z,6.90
2023-03-26T03:14:13.488Z,5.88
2023-03-26T03:16:46.881Z,7.15
2023-03-26T03:19:18.876Z,7.07
2023-03-26T03:21:52.670Z,5.82
2023-03-26T03:24:24.640Z,6.57
2023-03-26T03:26:58.022Z,6.43
2023-03-26T03:29:41.441Z,6.03
2023-03-26T03:32:50.478Z,6.68
2023-03-26T03:35:33.707Z,6.40
2023-03-26T03:38:06.305Z,5.83
2023-03-26T03:40:49.007Z,6.50
2023-03-26T03:43:21.989Z,5.28
2023-03-26T03:46:16.836Z,5.22
2023-03-26T03:48:52.575Z,5.70
2023-03-26T03:51:32.655Z,5.45
2023-03-26T03:54:08.532Z,5.78
2023-03-26T03:56:52.583Z,5.35
2023-03-26T03:59:48.079Z,6.82
2023-03-26T04:02:26.723Z,6.72
2023-03-26T04:05:06.177Z,5.85
2023-03-26T04:07:39.362Z,5.10
2023-03-26T04:10:15.376Z,7.40
2023-03-26T04:13:19.480Z,5.10
2023-03-26T04:16:11.860Z,6.15
2023-03-26T04:18:45.290Z,6.50
2023-03-26T04:21:21.343Z,5.65
2023-03-26T04:23:54.391Z,6.18
2023-03-26T04:26:51.037Z,6.47
2023-03-26T04:29:27.911Z,6.50
2023-03-26T04:32:06.518Z,6.45
2023-03-26T04:34:39.115Z,6.07
2023-03-26T04:37:26.572Z,7.45
2023-03-26T04:40:14.243Z,6.97
2023-03-26T04:43:04.787Z,7.43
2023-03-26T04:45:55.567Z,6.88
2023-03-26T04:48:30.508Z,7.63
2023-03-26T04:51:03.589Z,6.22
2023-03-26T04:53:36.929Z,6.75
2023-03-26T04:56:39.465Z,6.20
2023-03-26T04:59:30.170Z,7.50
2023-03-26T05:02:05.465Z,6.25
2023-03-26T05:04:46.516Z,6.22
2023-03-26T05:07:22.453Z,7.03
2023-03-26T05:09:59.200Z,6.18
2023-03-26T05:12:43.316Z,5.80
2023-03-26T05:15:20.706Z,5.25
2023-03-26T05:18:09.134Z,5.32
2023-03-26T05:20:52.113Z,5.20
2023-03-26T05:23:24.269Z,6.05
2023-03-26T05:26:07.754Z,6.03
2023-03-26T05:28:40.986Z,6.80
2023-03-26T05:31:30.885Z,6.30
2023-03-26T05:34:04.330Z,5.78
2023-03-26T05:36:37.046Z,5.00
2023-03-26T05:39:27.616Z,4.53
2023-03-26T05:42:19.559Z,6.32
2023-03-26T05:45:27.071Z,5.32
2023-03-26T05:48:00.045Z,5.70
2023-03-26T05:50:32.307Z,4.90
2023-03-26T05:53:05.730Z,5.22
2023-03-26T05:56:04.359Z,5.13
2023-03-26T05:58:57.644Z,4.57
2023-03-26T06:01:48.204Z,5.63
2023-03-26T06:04:21.317Z,6.53
2023-03-26T06:07:10.135Z,5.10
2023-03-26T06:09:42.930Z,4.50
2023-03-26T06:12:15.870Z,5.30
2023-03-26T06:14:50.274Z,5.35
2023-03-26T06:17:27.671Z,4.70
2023-03-26T06:20:09.757Z,6.13
2023-03-26T06:22:44.898Z,4.90
2023-03-26T06:25:29.419Z,5.75
2023-03-26T06:28:39.367Z,4.32
2023-03-26T06:31:38.688Z,4.57
2023-03-26T06:34:30.540Z,6.35
2023-03-26T06:37:02.964Z,7.28
2023-03-26T06:39:36.097Z,13.23
2023-03-26T06:42:17.724Z,13.57
2023-03-26T06:45:10.416Z,9.95
2023-03-26T06:48:02.548Z,6.10
2023-03-26T06:50:52.821Z,5.20
2023-03-26T06:53:57.179Z,5.25
2023-03-26T06:56:50.711Z,8.93
2023-03-26T06:59:43.019Z,9.88
2023-03-26T07:02:33.518Z,9.40
2023-03-26T07:05:25.909Z,10.02
2023-03-26T07:08:35.996Z,6.05
2023-03-26T07:11:27.125Z,4.03
2023-03-26T07:14:11.319Z,8.40
2023-03-26T07:16:53.182Z,8.85
2023-03-26T07:19:43.877Z,7.90
2023-03-26T07:22:21.433Z,6.95
2023-03-26T07:25:18.411Z,6.88
2023-03-26T07:28:17.735Z,7.82
2023-03-26T07:31:34.770Z,7.35
2023-03-26T07:34:39.213Z,9.38
2023-03-26T07:37:35.019Z,9.82
2023-03-26T07:40:43.978Z,9.60
2023-03-26T07:44:07.968Z,7.93
2023-03-26T07:47:00.821Z,6.10
2023-03-26T07:49:53.434Z,5.25
2023-03-26T07:52:47.578Z,4.45
2023-03-26T07:55:47.188Z,4.93
2023-03-26T07:59:19.358Z,4.13
2023-03-26T08:02:34.466Z,5.00
2023-03-26T08:05:26.716Z,4.40
2023-03-26T08:08:37.601Z,5.80
2023-03-26T08:11:40.409Z,5.15
2023-03-26T08:14:24.700Z,4.85
2023-03-26T08:17:05.852Z,5.07
2023-03-26T08:19:49.064Z,4.20
2023-03-26T08:22:27.438Z,5.20
2023-03-26T08:25:16.826Z,5.22
2023-03-26T08:28:00.727Z,4.25
2023-03-26T08:30:33.095Z,5.40
2023-03-26T08:33:13.092Z,3.95
2023-03-26T08:35:45.629Z,3.90
2023-03-26T08:38:19.468Z,3.20
2023-03-26T08:41:28.813Z,4.20
2023-03-26T08:44:47.753Z,4.95
2023-03-26T08:47:59.299Z,4.50
2023-03-26T08:51:19.169Z,5.07
2023-03-26T08:54:28.117Z,2.35
2023-03-26T08:57:31.302Z,3.78
2023-03-26T09:00:21.993Z,3.13
2023-03-26T09:03:33.568Z,3.60
2023-03-26T09:07:09.931Z,3.03
2023-03-26T09:10:24.008Z,3.17
2023-03-26T09:13:27.842Z,3.55
2023-03-26T09:16:33.553Z,3.22
2023-03-26T09:19:43.954Z,2.75
2023-03-26T09:22:38.912Z,2.28
2023-03-26T09:25:42.299Z,1.80
2023-03-26T09:28:44.627Z,1.95
2023-03-26T09:31:45.547Z,3.40
2023-03-26T09:34:31.736Z,2.00
2023-03-26T09:37:17.573Z,1.80
2023-03-26T09:40:05.271Z,3.67
2023-03-26T09:42:44.746Z,4.45
2023-03-26T09:45:43.260Z,3.85
2023-03-26T09:48:46.065Z,3.10
2023-03-26T09:51:42.740Z,3.08
2023-03-26T09:54:38.209Z,2.63
2023-03-26T09:57:22.915Z,3.97
2023-03-26T10:00:07.623Z,1.95
2023-03-26T10:03:07.187Z,4.60
2023-03-26T10:05:52.606Z,2.85
2023-03-26T10:08:36.107Z,2.63
2023-03-26T10:11:17.381Z,1.73
2023-03-26T10:14:03.857Z,1.92
2023-03-26T10:16:53.746Z,1.73
2023-03-26T10:19:46.366Z,2.10
2023-03-26T10:22:31.339Z,2.60
2023-03-26T10:25:22.413Z,2.67
2023-03-26T10:28:07.182Z,2.30
2023-03-26T10:30:56.746Z,2.90
2023-03-26T10:33:38.831Z,2.17
2023-03-26T10:36:29.912Z,2.53
2023-03-26T10:39:36.518Z,1.60
2023-03-26T10:42:23.669Z,2.33
2023-03-26T10:45:13.232Z,2.47
2023-03-26T10:48:12.259Z,2.73
2023-03-26T10:50:54.110Z,2.60
2023-03-26T10:53:34.856Z,2.13
2023-03-26T10:58:49.497Z,1.83
2023-03-26T11:01:31.351Z,2.33
2023-03-26T11:04:18.234Z,1.25
2023-03-26T11:07:00.275Z,3.20
2023-03-26T11:09:44.417Z,4.93
2023-03-26T11:12:28.565Z,3.03
2023-03-26T11:15:13.982Z,4.38
2023-03-26T11:17:55.074Z,4.88
2023-03-26T11:20:36.459Z,7.22
2023-03-26T11:23:29.595Z,4.60
2023-03-26T11:26:10.338Z,4.90
2023-03-26T11:29:31.522Z,7.18
2023-03-26T11:32:05.982Z,4.93
2023-03-26T11:34:42.792Z,5.60
2023-03-26T11:37:20.220Z,1.90
2023-03-26T11:39:56.813Z,2.10
2023-03-26T11:42:30.954Z,1.48
2023-03-26T11:45:06.661Z,1.38
2023-03-26T11:47:46.663Z,2.03
2023-03-26T11:50:21.869Z,2.20
2023-03-26T11:52:59.176Z,2.80
2023-03-26T11:55:32.139Z,4.20
2023-03-26T11:58:21.438Z,3.65
2023-03-26T12:00:54.966Z,1.40
2023-03-26T12:03:30.351Z,1.92
2023-03-26T12:06:03.717Z,1.15
2023-03-26T12:08:41.465Z,0.90
2023-03-26T12:11:20.932Z,1.70
2023-03-26T12:13:58.104Z,6.88
2023-03-26T12:16:30.594Z,4.35
2023-03-26T12:19:07.349Z,3.25
2023-03-26T12:21:45.643Z,5.90
2023-03-26T12:24:29.457Z,7.15
2023-03-26T12:27:20.339Z,7.53
2023-03-26T12:30:03.751Z,4.65
2023-03-26T12:32:46.109Z,2.65
2023-03-26T12:35:22.984Z,4.10
2023-03-26T12:37:55.967Z,3.30
2023-03-26T12:40:30.748Z,3.03
2023-03-26T12:44:50.125Z,3.08
2023-03-26T12:47:55.602Z,2.50
2023-03-26T12:48:55.120Z,2.75
2023-03-26T12:51:40.303Z,2.25
2023-03-26T12:54:29.687Z,3.35
2023-03-26T12:57:18.807Z,3.33
2023-03-26T13:00:09.390Z,1.40
2023-03-26T13:03:06.865Z,2.00
2023-03-26T13:05:53.429Z,1.20
2023-03-26T13:08:57.596Z,1.20
2023-03-26T13:11:41.697Z,2.05
2023-03-26T13:14:38.790Z,1.50
2023-03-26T13:17:22.493Z,2.00
2023-03-26T13:20:12.571Z,1.05
2023-03-26T13:22:58.547Z,1.50
2023-03-26T13:25:38.874Z,2.38
2023-03-26T13:28:21.607Z,2.90
2023-03-26T13:31:07.094Z,9.00
2023-03-26T13:33:49.168Z,2.30
2023-03-26T13:36:31.716Z,1.50
2023-03-26T13:39:16.315Z,0.82
2023-03-26T13:41:57.979Z,0.90
2023-03-26T13:44:39.805Z,0.80
2023-03-26T13:47:18.071Z,0.82
2023-03-26T13:49:54.477Z,0.82
2023-03-26T13:52:34.310Z,1.30
2023-03-26T13:55:20.379Z,0.88
2023-03-26T13:58:02.007Z,2.33
2023-03-26T14:00:49.483Z,1.20
2023-03-26T14:03:29.083Z,1.40
2023-03-26T14:06:06.561Z,1.45
2023-03-26T14:08:44.827Z,1.15
2023-03-26T14:11:21.958Z,1.35
2023-03-26T14:14:04.080Z,1.20
2023-03-26T14:16:41.904Z,1.45
2023-03-26T14:19:34.445Z,1.52
2023-03-26T14:22:18.281Z,1.45
2023-03-26T14:25:08.430Z,2.55
2023-03-26T14:28:02.090Z,2.38
2023-03-26T14:30:59.228Z,1.90
2023-03-26T14:33:44.275Z,2.25
2023-03-26T14:36:36.607Z,1.90
2023-03-26T14:39:38.667Z,1.80
2023-03-26T14:42:19.869Z,2.17
2023-03-26T14:45:21.240Z,1.50
2023-03-26T14:48:09.924Z,1.42
2023-03-26T14:50:58.663Z,2.40
2023-03-26T14:53:35.209Z,1.92
2023-03-26T14:56:32.307Z,1.75
2023-03-26T14:59:43.802Z,1.67
2023-03-26T15:02:51.016Z,1.27
2023-03-26T15:05:58.466Z,1.40
2023-03-26T15:09:09.637Z,1.38
2023-03-26T15:11:51.097Z,1.55
2023-03-26T15:15:02.290Z,1.20
2023-03-26T15:17:58.248Z,2.10
2023-03-26T15:21:12.924Z,1.80
2023-03-26T15:24:04.875Z,1.48
2023-03-26T15:27:06.852Z,1.45
2023-03-26T15:29:59.264Z,2.15
2023-03-26T15:33:06.309Z,1.60
2023-03-26T15:36:13.983Z,1.30
2023-03-26T15:39:04.339Z,1.83
2023-03-26T15:44:52.809Z,1.90
2023-03-26T15:47:51.172Z,1.30
2023-03-26T15:50:38.101Z,1.50
2023-03-26T15:53:23.632Z,2.03
2023-03-26T15:56:10.138Z,2.17
2023-03-26T15:58:51.155Z,1.80
2023-03-26T16:01:35.389Z,2.03
2023-03-26T16:04:21.180Z,2.00
2023-03-26T16:07:03.330Z,1.98
2023-03-26T16:10:00.829Z,2.45
2023-03-26T16:12:36.706Z,2.55
2023-03-26T16:15:31.935Z,2.50
2023-03-26T16:18:22.444Z,2.00
2023-03-26T16:23:32.137Z,2.95
2023-03-26T16:26:18.645Z,3.55
2023-03-26T16:29:16.703Z,3.38
2023-03-26T16:32:16.424Z,2.80
2023-03-26T16:34:51.351Z,2.65
2023-03-26T16:37:40.018Z,3.35
2023-03-26T16:40:32.809Z,3.42
2023-03-26T16:43:29.142Z,3.22
2023-03-26T16:46:10.382Z,3.42
2023-03-26T16:48:55.036Z,4.07
2023-03-26T16:51:53.578Z,4.05
2023-03-26T16:54:34.634Z,4.03
2023-03-26T16:57:17.970Z,3.65
2023-03-26T17:00:34.976Z,4.40
2023-03-26T17:03:26.855Z,4.65
2023-03-26T17:06:06.077Z,4.07
2023-03-26T17:08:46.820Z,6.80
2023-03-26T17:11:27.144Z,9.05
2023-03-26T17:16:46.034Z,6.82
2023-03-26T17:19:29.721Z,5.80
2023-03-26T17:22:09.341Z,8.38
2023-03-26T17:24:49.604Z,11.00
2023-03-26T17:27:50.007Z,6.10
2023-03-26T17:30:33.592Z,22.25
2023-03-26T17:33:23.285Z,17.90
2023-03-26T17:36:24.326Z,12.40
2023-03-26T17:39:25.312Z,15.98
2023-03-26T17:42:16.712Z,27.40
2023-03-26T17:44:50.916Z,13.52
2023-03-26T17:47:38.427Z,8.50
2023-03-26T17:50:16.007Z,8.88
2023-03-26T17:52:55.686Z,8.75
2023-03-26T17:55:31.199Z,7.32
2023-03-26T17:58:05.703Z,9.27
2023-03-26T18:00:42.270Z,18.08
2023-03-26T18:03:20.227Z,10.50
2023-03-26T18:05:56.592Z,8.73
2023-03-26T18:08:49.668Z,7.60
2023-03-26T18:11:43.941Z,8.55
2023-03-26T18:14:46.174Z,7.38
2023-03-26T18:17:18.327Z,8.27
2023-03-26T18:19:52.653Z,9.07
2023-03-26T18:22:28.698Z,7.88
2023-03-26T18:25:02.408Z,9.57
2023-03-26T18:27:38.595Z,8.00
2023-03-26T18:30:16.329Z,7.63
2023-03-26T18:35:41.568Z,11.00
2023-03-26T18:38:35.931Z,10.90
2023-03-26T18:41:22.575Z,11.43
2023-03-26T18:43:55.588Z,12.18
2023-03-26T18:46:27.975Z,11.13
2023-03-26T18:49:02.939Z,11.68
2023-03-26T18:51:43.248Z,10.63
2023-03-26T18:54:24.400Z,9.18
2023-03-26T18:56:58.921Z,8.00
2023-03-26T18:59:35.225Z,10.90
2023-03-26T19:02:13.067Z,15.02
2023-03-26T19:04:47.215Z,10.00
2023-03-26T19:07:24.857Z,8.77
2023-03-26T19:10:01.339Z,8.02
2023-03-26T19:12:35.710Z,7.25
2023-03-26T19:15:11.408Z,8.23
2023-03-26T19:17:45.933Z,8.57
2023-03-26T19:20:20.109Z,8.30
2023-03-26T19:22:52.702Z,7.22
2023-03-26T19:25:29.622Z,8.07
2023-03-26T19:28:01.705Z,7.30
2023-03-26T19:30:39.432Z,7.28
2023-03-26T19:33:16.655Z,6.70
2023-03-26T19:35:53.173Z,6.72
2023-03-26T19:38:27.187Z,8.73
2023-03-26T19:41:00.536Z,9.32
2023-03-26T19:43:32.525Z,9.50
2023-03-26T19:46:04.650Z,10.63
2023-03-26T19:48:45.732Z,10.35
2023-03-26T19:51:21.043Z,9.57
2023-03-26T19:53:55.560Z,9.32
2023-03-26T19:56:29.278Z,8.95
2023-03-26T19:59:01.324Z,10.45
2023-03-26T20:01:33.638Z,11.40
2023-03-26T20:04:09.515Z,11.90
2023-03-26T20:06:44.166Z,13.35
2023-03-26T20:09:16.649Z,12.45
2023-03-26T20:11:52.608Z,12.43
2023-03-26T20:14:26.647Z,12.00
2023-03-26T20:16:58.809Z,10.90
2023-03-26T20:19:30.856Z,13.02
2023-03-26T20:22:02.923Z,14.90
2023-03-26T20:24:34.911Z,12.70
2023-03-26T20:27:08.314Z,13.18
2023-03-26T20:29:41.075Z,12.85
2023-03-26T20:32:19.242Z,13.65
2023-03-26T20:34:51.244Z,16.70
2023-03-26T20:37:23.261Z,14.35
2023-03-26T20:39:55.282Z,15.93
2023-03-26T20:42:28.690Z,16.77
2023-03-26T20:45:00.635Z,17.38
2023-03-26T20:47:32.594Z,19.10
2023-03-26T20:50:05.457Z,17.73
2023-03-26T20:52:37.416Z,14.93
2023-03-26T20:55:12.754Z,15.75
2023-03-26T20:57:48.661Z,17.58
2023-03-26T21:00:24.281Z,18.90
2023-03-26T21:02:57.063Z,16.58
2023-03-26T21:05:30.199Z,17.35
2023-03-26T21:08:02.697Z,26.83
2023-03-26T21:10:36.001Z,21.15
2023-03-26T21:13:13.775Z,18.17
2023-03-26T21:15:46.634Z,19.63
2023-03-26T21:18:19.117Z,19.65
2023-03-26T21:21:07.669Z,19.23
2023-03-26T21:23:57.883Z,18.80
2023-03-26T21:26:34.296Z,17.52
2023-03-26T21:29:15.992Z,17.60
2023-03-26T21:31:48.524Z,18.90
2023-03-26T21:34:22.290Z,18.75
2023-03-26T21:36:55.706Z,21.27
2023-03-26T21:39:28.970Z,28.67
2023-03-26T21:42:05.355Z,29.42
2023-03-26T21:44:40.133Z,29.77
2023-03-26T21:47:13.026Z,28.98
2023-03-26T21:49:45.542Z,28.13
2023-03-26T21:52:18.072Z,27.92
2023-03-26T21:54:50.994Z,23.60
2023-03-26T21:57:36.646Z,25.15
2023-03-26T22:00:18.240Z,19.08
2023-03-26T22:03:00.134Z,23.00
2023-03-26T22:05:38.487Z,18.77
2023-03-26T22:08:21.955Z,19.83
2023-03-26T22:10:54.040Z,18.10
2023-03-26T22:13:26.324Z,16.50
2023-03-26T22:16:00.163Z,21.38
2023-03-26T22:18:33.239Z,19.40
2023-03-26T22:21:05.951Z,16.08
2023-03-26T22:23:38.767Z,16.23
2023-03-26T22:26:10.719Z,16.63
2023-03-26T22:28:42.682Z,15.30
2023-03-26T22:31:16.720Z,19.42
2023-03-26T22:33:49.119Z,17.50
2023-03-26T22:36:22.895Z,16.73
2023-03-26T22:38:56.720Z,16.92
2023-03-26T22:41:31.868Z,17.08
2023-03-26T22:44:16.958Z,15.60
2023-03-26T22:46:54.507Z,17.23
2023-03-26T22:49:27.524Z,14.73
2023-03-26T22:51:59.491Z,17.75
2023-03-26T22:54:31.799Z,15.82
2023-03-26T22:57:03.925Z,17.17
2023-03-26T22:59:36.240Z,16.48
2023-03-26T23:02:10.998Z,18.15
2023-03-26T23:04:43.140Z,17.85
2023-03-26T23:07:15.399Z,21.60
2023-03-26T23:09:47.313Z,19.42
2023-03-26T23:12:19.212Z,18.85
2023-03-26T23:14:53.077Z,21.67
2023-03-26T23:17:27.128Z,20.67
2023-03-26T23:20:00.626Z,19.90
2023-03-26T23:22:32.575Z,17.60
2023-03-26T23:25:04.985Z,17.60
2023-03-26T23:27:37.113Z,15.68
2023-03-26T23:30:10.947Z,17.15
2023-03-26T23:32:44.394Z,15.60
2023-03-26T23:35:16.460Z,17.23
2023-03-26T23:37:50.851Z,13.20
2023-03-26T23:40:23.024Z,11.15
2023-03-26T23:42:55.216Z,12.07
2023-03-26T23:45:27.254Z,9.98
2023-03-26T23:48:02.444Z,11.32
2023-03-26T23:50:37.751Z,9.88
2023-03-26T23:53:09.732Z,10.23
2023-03-26T23:55:41.662Z,10.10
2023-03-26T23:58:13.974Z,9.40
